sensor_id;sensor_type;location;lat;lon;timestamp;temperature;humidity
44359;DHT22;30077;52.474;13.326;2024-02-04T00:07:27;8.30;99.90
44359;DHT22;30077;52.474;13.326;2024-02-04T00:17:29;8.40;99.90
44359;DHT22;30077;52.474;13.326;2024-02-04T00:27:32;8.30;99.90
44359;DHT22;30077;52.474;13.326;2024-02-04T00:37:33;8.30;99.90
44359;DHT22;30077;52.474;13.326;2024-02-04T00:47:34;8.00;99.90
44359;DHT22;30077;52.474;13.326;2024-02-04T00:57:34;7.80;99.90
44359;DHT22;30077;52.474;13.326;2024-02-04T01:07:35;7.60;99.90
44359;DHT22;30077;52.474;13.326;2024-02-04T01:17:36;7.40;99.90
44359;DHT22;30077;52.474;13.326;2024-02-04T01:27:36;7.40;99.90
44359;DHT22;30077;52.474;13.326;2024-02-04T01:37:39;7.20;99.90
44359;DHT22;30077;52.474;13.326;2024-02-04T01:47:39;7.10;99.90
44359;DHT22;30077;52.474;13.326;2024-02-04T01:57:40;6.90;99.90
44359;DHT22;30077;52.474;13.326;2024-02-04T02:07:41;6.90;99.90
44359;DHT22;30077;52.474;13.326;2024-02-04T02:28:04;6.90;99.90
44359;DHT22;30077;52.474;13.326;2024-02-04T02:38:29;6.80;99.90
44359;DHT22;30077;52.474;13.326;2024-02-04T02:48:38;6.70;99.90
44359;DHT22;30077;52.474;13.326;2024-02-04T02:58:39;6.60;99.90
44359;DHT22;30077;52.474;13.326;2024-02-04T03:08:40;6.60;99.90
44359;DHT22;30077;52.474;13.326;2024-02-04T03:18:41;6.80;99.90
44359;DHT22;30077;52.474;13.326;2024-02-04T03:28:42;7.00;99.90
44359;DHT22;30077;52.474;13.326;2024-02-04T03:38:43;7.20;99.90
44359;DHT22;30077;52.474;13.326;2024-02-04T03:48:44;7.30;99.90
44359;DHT22;30077;52.474;13.326;2024-02-04T03:58:44;7.30;99.90
44359;DHT22;30077;52.474;13.326;2024-02-04T04:08:46;7.30;99.90
44359;DHT22;30077;52.474;13.326;2024-02-04T04:18:47;7.20;99.90
44359;DHT22;30077;52.474;13.326;2024-02-04T04:28:47;7.00;99.90
44359;DHT22;30077;52.474;13.326;2024-02-04T04:38:48;6.80;99.90
44359;DHT22;30077;52.474;13.326;2024-02-04T04:48:50;6.70;99.90
44359;DHT22;30077;52.474;13.326;2024-02-04T04:58:52;6.60;99.90
44359;DHT22;30077;52.474;13.326;2024-02-04T05:08:53;6.60;99.90
44359;DHT22;30077;52.474;13.326;2024-02-04T05:18:54;6.50;99.90
44359;DHT22;30077;52.474;13.326;2024-02-04T05:28:54;6.40;99.90
44359;DHT22;30077;52.474;13.326;2024-02-04T05:38:55;6.40;99.90
44359;DHT22;30077;52.474;13.326;2024-02-04T05:48:56;6.40;99.90
44359;DHT22;30077;52.474;13.326;2024-02-04T05:58:56;6.30;99.90
44359;DHT22;30077;52.474;13.326;2024-02-04T06:08:57;6.50;99.90
44359;DHT22;30077;52.474;13.326;2024-02-04T06:18:58;6.60;99.90
44359;DHT22;30077;52.474;13.326;2024-02-04T06:29:00;6.60;99.90
44359;DHT22;30077;52.474;13.326;2024-02-04T06:39:00;6.70;99.90
44359;DHT22;30077;52.474;13.326;2024-02-04T06:49:01;6.60;99.90
44359;DHT22;30077;52.474;13.326;2024-02-04T06:59:02;6.60;99.90
44359;DHT22;30077;52.474;13.326;2024-02-04T07:09:03;6.60;99.90
44359;DHT22;30077;52.474;13.326;2024-02-04T07:19:03;6.70;99.90
44359;DHT22;30077;52.474;13.326;2024-02-04T07:29:04;6.70;99.90
44359;DHT22;30077;52.474;13.326;2024-02-04T07:39:05;6.80;99.90
44359;DHT22;30077;52.474;13.326;2024-02-04T07:49:06;6.90;99.90
44359;DHT22;30077;52.474;13.326;2024-02-04T07:59:07;7.10;99.90
44359;DHT22;30077;52.474;13.326;2024-02-04T08:09:07;7.30;99.90
44359;DHT22;30077;52.474;13.326;2024-02-04T08:19:08;7.40;99.90
44359;DHT22;30077;52.474;13.326;2024-02-04T08:29:09;7.60;99.90
44359;DHT22;30077;52.474;13.326;2024-02-04T08:39:11;7.80;99.90
44359;DHT22;30077;52.474;13.326;2024-02-04T08:49:12;7.90;99.90
44359;DHT22;30077;52.474;13.326;2024-02-04T08:59:12;8.10;99.90
44359;DHT22;30077;52.474;13.326;2024-02-04T09:09:13;8.10;99.90
44359;DHT22;30077;52.474;13.326;2024-02-04T09:19:14;8.30;99.90
44359;DHT22;30077;52.474;13.326;2024-02-04T09:29:14;8.40;99.90
44359;DHT22;30077;52.474;13.326;2024-02-04T09:39:15;8.60;99.90
44359;DHT22;30077;52.474;13.326;2024-02-04T09:49:16;8.70;99.90
44359;DHT22;30077;52.474;13.326;2024-02-04T09:59:16;9.00;99.90
44359;DHT22;30077;52.474;13.326;2024-02-04T10:09:18;9.10;99.90
44359;DHT22;30077;52.474;13.326;2024-02-04T10:19:18;9.00;99.90
44359;DHT22;30077;52.474;13.326;2024-02-04T10:29:19;9.20;99.90
44359;DHT22;30077;52.474;13.326;2024-02-04T10:39:20;9.50;99.90
44359;DHT22;30077;52.474;13.326;2024-02-04T10:49:21;9.50;99.90
44359;DHT22;30077;52.474;13.326;2024-02-04T10:59:24;9.50;99.90
44359;DHT22;30077;52.474;13.326;2024-02-04T11:09:26;9.40;99.90
44359;DHT22;30077;52.474;13.326;2024-02-04T11:19:47;9.50;99.90
44359;DHT22;30077;52.474;13.326;2024-02-04T11:30:07;9.50;99.90
44359;DHT22;30077;52.474;13.326;2024-02-04T11:40:14;9.60;99.90
44359;DHT22;30077;52.474;13.326;2024-02-04T11:50:28;9.40;99.90
44359;DHT22;30077;52.474;13.326;2024-02-04T12:00:35;9.40;99.90
44359;DHT22;30077;52.474;13.326;2024-02-04T12:10:36;9.70;99.90
44359;DHT22;30077;52.474;13.326;2024-02-04T12:20:37;9.70;99.90
44359;DHT22;30077;52.474;13.326;2024-02-04T12:30:38;9.60;99.90
44359;DHT22;30077;52.474;13.326;2024-02-04T12:40:39;9.10;99.90
44359;DHT22;30077;52.474;13.326;2024-02-04T12:50:40;9.20;99.90
44359;DHT22;30077;52.474;13.326;2024-02-04T13:00:41;9.10;99.90
44359;DHT22;30077;52.474;13.326;2024-02-04T13:10:42;9.10;99.90
44359;DHT22;30077;52.474;13.326;2024-02-04T13:20:44;9.10;99.90
44359;DHT22;30077;52.474;13.326;2024-02-04T13:30:45;9.00;99.90
44359;DHT22;30077;52.474;13.326;2024-02-04T13:40:46;8.90;99.90
44359;DHT22;30077;52.474;13.326;2024-02-04T13:50:47;8.90;99.90
44359;DHT22;30077;52.474;13.326;2024-02-04T14:00:48;8.80;99.90
44359;DHT22;30077;52.474;13.326;2024-02-04T14:10:51;8.90;99.90
44359;DHT22;30077;52.474;13.326;2024-02-04T14:20:53;8.90;99.90
44359;DHT22;30077;52.474;13.326;2024-02-04T14:30:54;8.90;99.90
44359;DHT22;30077;52.474;13.326;2024-02-04T14:40:55;8.90;99.90
44359;DHT22;30077;52.474;13.326;2024-02-04T14:50:56;8.90;99.90
44359;DHT22;30077;52.474;13.326;2024-02-04T15:00:58;8.90;99.90
44359;DHT22;30077;52.474;13.326;2024-02-04T15:10:59;8.80;99.90
44359;DHT22;30077;52.474;13.326;2024-02-04T15:21:00;8.80;99.90
44359;DHT22;30077;52.474;13.326;2024-02-04T15:31:02;8.80;99.90
44359;DHT22;30077;52.474;13.326;2024-02-04T15:41:03;8.80;99.90
44359;DHT22;30077;52.474;13.326;2024-02-04T15:51:04;8.80;99.90
44359;DHT22;30077;52.474;13.326;2024-02-04T16:01:14;8.80;99.90
44359;DHT22;30077;52.474;13.326;2024-02-04T16:11:18;8.80;99.90
44359;DHT22;30077;52.474;13.326;2024-02-04T16:21:19;8.80;99.90
44359;DHT22;30077;52.474;13.326;2024-02-04T16:31:20;8.80;99.90
44359;DHT22;30077;52.474;13.326;2024-02-04T16:41:20;8.80;99.90
44359;DHT22;30077;52.474;13.326;2024-02-04T16:51:21;8.70;99.90
44359;DHT22;30077;52.474;13.326;2024-02-04T17:01:22;8.70;99.90
44359;DHT22;30077;52.474;13.326;2024-02-04T17:11:25;8.80;99.90
44359;DHT22;30077;52.474;13.326;2024-02-04T17:21:38;8.70;99.90
44359;DHT22;30077;52.474;13.326;2024-02-04T17:31:40;8.80;99.90
44359;DHT22;30077;52.474;13.326;2024-02-04T17:41:41;8.70;99.90
44359;DHT22;30077;52.474;13.326;2024-02-04T17:51:44;8.70;99.90
44359;DHT22;30077;52.474;13.326;2024-02-04T18:01:46;8.60;99.90
44359;DHT22;30077;52.474;13.326;2024-02-04T18:11:48;8.60;99.90
44359;DHT22;30077;52.474;13.326;2024-02-04T18:21:48;8.60;99.90
44359;DHT22;30077;52.474;13.326;2024-02-04T18:31:50;8.50;99.90
44359;DHT22;30077;52.474;13.326;2024-02-04T18:41:51;8.50;99.90
44359;DHT22;30077;52.474;13.326;2024-02-04T18:51:51;8.40;99.90
44359;DHT22;30077;52.474;13.326;2024-02-04T19:01:53;8.40;99.90
44359;DHT22;30077;52.474;13.326;2024-02-04T19:11:55;8.40;99.90
44359;DHT22;30077;52.474;13.326;2024-02-04T19:21:56;8.40;99.90
44359;DHT22;30077;52.474;13.326;2024-02-04T19:31:57;8.40;99.90
44359;DHT22;30077;52.474;13.326;2024-02-04T19:41:58;8.40;99.90
44359;DHT22;30077;52.474;13.326;2024-02-04T19:52:00;8.40;99.90
44359;DHT22;30077;52.474;13.326;2024-02-04T20:02:01;8.40;99.90
44359;DHT22;30077;52.474;13.326;2024-02-04T20:12:02;8.30;99.90
44359;DHT22;30077;52.474;13.326;2024-02-04T20:22:06;8.20;99.90
44359;DHT22;30077;52.474;13.326;2024-02-04T20:32:07;8.20;99.90
44359;DHT22;30077;52.474;13.326;2024-02-04T20:42:08;8.20;99.90
44359;DHT22;30077;52.474;13.326;2024-02-04T20:52:09;8.00;99.90
44359;DHT22;30077;52.474;13.326;2024-02-04T21:02:12;7.80;99.90
44359;DHT22;30077;52.474;13.326;2024-02-04T21:12:12;7.70;99.90
44359;DHT22;30077;52.474;13.326;2024-02-04T21:22:13;7.60;99.90
44359;DHT22;30077;52.474;13.326;2024-02-04T21:32:14;7.50;99.90
44359;DHT22;30077;52.474;13.326;2024-02-04T21:42:15;7.50;99.90
44359;DHT22;30077;52.474;13.326;2024-02-04T21:52:17;7.40;99.90
44359;DHT22;30077;52.474;13.326;2024-02-04T22:02:18;7.40;99.90
44359;DHT22;30077;52.474;13.326;2024-02-04T22:12:18;7.30;99.90
44359;DHT22;30077;52.474;13.326;2024-02-04T22:22:19;7.30;99.90
44359;DHT22;30077;52.474;13.326;2024-02-04T22:32:20;7.30;99.90
44359;DHT22;30077;52.474;13.326;2024-02-04T22:42:20;7.30;99.90
44359;DHT22;30077;52.474;13.326;2024-02-04T22:52:21;7.40;99.90
44359;DHT22;30077;52.474;13.326;2024-02-04T23:02:21;7.40;99.90
44359;DHT22;30077;52.474;13.326;2024-02-04T23:12:22;7.40;99.90
44359;DHT22;30077;52.474;13.326;2024-02-04T23:22:23;7.40;99.90
44359;DHT22;30077;52.474;13.326;2024-02-04T23:32:23;7.40;99.90
44359;DHT22;30077;52.474;13.326;2024-02-04T23:42:24;7.40;99.90
44359;DHT22;30077;52.474;13.326;2024-02-04T23:52:25;7.50;99.90
